createdAt,value
2017-12-28T00:00:54.077Z,0.00
2017-12-28T00:01:54.065Z,0.00
2017-12-28T00:02:54.054Z,0.00
2017-12-28T00:03:54.045Z,0.00
2017-12-28T00:04:54.037Z,0.00
2017-12-28T00:05:54.029Z,0.00
2017-12-28T00:06:54.021Z,0.00
2017-12-28T00:07:54.013Z,0.00
2017-12-28T00:08:54.002Z,0.00
2017-12-28T00:09:53.998Z,0.00
2017-12-28T00:10:53.989Z,0.00
2017-12-28T00:11:53.981Z,0.00
2017-12-28T00:12:53.971Z,0.00
2017-12-28T00:13:53.963Z,0.00
2017-12-28T00:14:53.955Z,0.00
2017-12-28T00:15:53.946Z,0.00
2017-12-28T00:16:53.937Z,0.00
2017-12-28T00:17:53.923Z,0.00
2017-12-28T00:18:53.914Z,0.00
2017-12-28T00:19:53.905Z,0.00
2017-12-28T00:20:53.897Z,0.00
2017-12-28T00:21:53.888Z,0.00
2017-12-28T00:22:53.878Z,0.00
2017-12-28T00:23:53.870Z,0.00
2017-12-28T00:24:53.861Z,0.00
2017-12-28T00:25:53.857Z,0.00
2017-12-28T00:26:53.849Z,0.00
2017-12-28T00:27:53.840Z,0.00
2017-12-28T00:28:53.830Z,0.00
2017-12-28T00:29:53.822Z,0.00
2017-12-28T00:30:53.812Z,0.00
2017-12-28T00:31:53.804Z,0.00
2017-12-28T00:32:53.795Z,0.00
2017-12-28T00:33:53.783Z,0.00
2017-12-28T00:34:53.773Z,0.00
2017-12-28T00:35:53.765Z,0.00
2017-12-28T00:36:53.756Z,0.00
2017-12-28T00:37:53.749Z,0.00
2017-12-28T00:38:53.739Z,0.00
2017-12-28T00:39:53.730Z,0.00
2017-12-28T00:40:53.721Z,0.00
2017-12-28T00:41:53.717Z,0.00
2017-12-28T00:42:53.708Z,0.00
2017-12-28T00:43:53.699Z,0.00
2017-12-28T00:44:53.690Z,0.00
2017-12-28T00:45:53.682Z,0.00
2017-12-28T00:46:53.672Z,0.00
2017-12-28T00:47:53.664Z,0.00
2017-12-28T00:48:53.655Z,0.00
2017-12-28T00:49:53.643Z,0.00
2017-12-28T00:50:53.633Z,0.00
2017-12-28T00:51:53.625Z,0.00
2017-12-28T00:52:53.616Z,0.00
2017-12-28T00:53:53.609Z,0.00
2017-12-28T00:54:53.599Z,0.00
2017-12-28T00:55:53.590Z,0.00
2017-12-28T00:56:53.582Z,0.00
2017-12-28T00:57:53.577Z,0.00
2017-12-28T00:58:53.568Z,0.00
2017-12-28T00:59:53.560Z,0.00
2017-12-28T01:00:53.551Z,0.00
2017-12-28T01:01:53.539Z,0.00
2017-12-28T01:02:53.529Z,0.00
2017-12-28T01:03:53.521Z,0.00
2017-12-28T01:04:53.513Z,0.00
2017-12-28T01:05:53.509Z,0.00
2017-12-28T01:06:53.499Z,0.00
2017-12-28T01:07:53.492Z,0.00
2017-12-28T01:08:53.482Z,0.00
2017-12-28T01:09:53.473Z,0.00
2017-12-28T01:10:53.464Z,0.00
2017-12-28T01:11:53.459Z,0.00
2017-12-28T01:12:53.449Z,0.00
2017-12-28T01:13:53.435Z,0.00
2017-12-28T01:14:53.427Z,0.00
2017-12-28T01:15:53.417Z,0.00
2017-12-28T01:16:53.410Z,0.00
2017-12-28T01:17:53.401Z,0.00
2017-12-28T01:18:53.391Z,0.00
2017-12-28T01:19:53.384Z,0.00
2017-12-28T01:20:53.374Z,0.00
2017-12-28T01:21:53.374Z,0.00
2017-12-28T01:22:53.361Z,0.00
2017-12-28T01:23:53.353Z,0.00
2017-12-28T01:24:53.346Z,0.00
2017-12-28T01:25:53.336Z,0.00
2017-12-28T01:26:53.327Z,0.00
2017-12-28T01:27:53.318Z,0.00
2017-12-28T01:28:53.312Z,0.00
2017-12-28T01:29:53.297Z,0.00
2017-12-28T01:30:53.288Z,0.00
2017-12-28T01:31:53.281Z,0.00
2017-12-28T01:32:53.271Z,0.00
2017-12-28T01:33:53.262Z,0.00
2017-12-28T01:34:53.253Z,0.00
2017-12-28T01:35:53.246Z,0.00
2017-12-28T01:36:53.237Z,0.00
2017-12-28T01:37:53.232Z,0.00
2017-12-28T01:38:53.223Z,0.00
2017-12-28T01:39:53.217Z,0.00
2017-12-28T01:40:53.206Z,0.00
2017-12-28T01:41:53.198Z,0.00
2017-12-28T01:42:53.188Z,0.00
2017-12-28T01:43:53.180Z,0.00
2017-12-28T01:44:53.172Z,0.00
2017-12-28T01:45:53.160Z,0.00
2017-12-28T01:46:53.149Z,0.00
2017-12-28T01:47:53.140Z,0.00
2017-12-28T01:48:53.132Z,0.00
2017-12-28T01:49:53.123Z,0.00
2017-12-28T01:50:53.114Z,0.00
2017-12-28T01:51:53.104Z,0.00
2017-12-28T01:52:53.096Z,0.00
2017-12-28T01:53:53.092Z,0.00
2017-12-28T01:54:53.083Z,0.00
2017-12-28T01:55:53.073Z,0.00
2017-12-28T01:56:53.066Z,0.00
2017-12-28T01:57:53.060Z,0.00
2017-12-28T01:58:53.047Z,0.00
2017-12-28T01:59:53.040Z,0.00
2017-12-28T02:00:53.030Z,0.00
2017-12-28T02:01:53.017Z,0.00
2017-12-28T02:02:53.007Z,0.00
2017-12-28T02:03:53.000Z,0.00
2017-12-28T02:04:52.990Z,0.00
2017-12-28T02:05:52.986Z,0.00
2017-12-28T02:06:52.976Z,0.00
2017-12-28T02:07:52.969Z,0.00
2017-12-28T02:08:52.959Z,0.00
2017-12-28T02:09:52.945Z,0.00
2017-12-28T02:10:52.936Z,0.00
2017-12-28T02:11:52.928Z,0.00
2017-12-28T02:12:52.920Z,0.00
2017-12-28T02:13:52.911Z,0.00
2017-12-28T02:14:52.900Z,0.00
2017-12-28T02:15:52.893Z,0.00
2017-12-28T02:16:52.886Z,0.00
2017-12-28T02:17:52.878Z,0.00
2017-12-28T02:18:52.868Z,0.00
2017-12-28T02:19:52.861Z,0.00
2017-12-28T02:20:52.851Z,0.00
2017-12-28T02:21:52.842Z,0.00
2017-12-28T02:22:52.832Z,0.00
2017-12-28T02:23:52.824Z,0.00
2017-12-28T02:24:52.815Z,0.00
2017-12-28T02:25:52.803Z,0.00
2017-12-28T02:26:52.792Z,0.00
2017-12-28T02:27:52.783Z,0.00
2017-12-28T02:28:52.775Z,0.00
2017-12-28T02:29:52.766Z,0.00
2017-12-28T02:30:52.757Z,0.00
2017-12-28T02:31:52.748Z,0.00
2017-12-28T02:32:52.740Z,0.00
2017-12-28T02:33:52.736Z,0.00
2017-12-28T02:34:52.726Z,0.00
2017-12-28T02:35:52.717Z,0.00
2017-12-28T02:36:52.708Z,0.00
2017-12-28T02:37:52.699Z,0.00
2017-12-28T02:38:52.691Z,0.00
2017-12-28T02:39:52.700Z,0.00
2017-12-28T02:40:52.673Z,0.00
2017-12-28T02:41:52.662Z,0.00
2017-12-28T02:42:52.651Z,0.00
2017-12-28T02:43:52.640Z,0.00
2017-12-28T02:44:52.634Z,0.00
2017-12-28T02:45:52.624Z,0.00
2017-12-28T02:46:52.615Z,0.00
2017-12-28T02:47:52.607Z,0.00
2017-12-28T02:48:52.597Z,0.00
2017-12-28T02:49:52.593Z,0.00
2017-12-28T02:50:52.584Z,0.00
2017-12-28T02:51:52.576Z,0.00
2017-12-28T02:52:52.565Z,0.00
2017-12-28T02:53:52.558Z,0.00
2017-12-28T02:54:52.548Z,0.00
2017-12-28T02:55:52.539Z,0.00
2017-12-28T02:56:52.530Z,0.00
2017-12-28T02:57:52.517Z,0.00
2017-12-28T02:58:52.507Z,0.00
2017-12-28T02:59:52.499Z,0.00
2017-12-28T03:00:52.491Z,0.00
2017-12-28T03:01:52.480Z,0.00
2017-12-28T03:02:52.471Z,0.00
2017-12-28T03:03:52.462Z,0.00
2017-12-28T03:04:52.454Z,0.00
2017-12-28T03:05:52.449Z,0.00
2017-12-28T03:06:52.439Z,0.00
2017-12-28T03:07:52.430Z,0.00
2017-12-28T03:08:52.420Z,0.00
2017-12-28T03:09:52.408Z,0.00
2017-12-28T03:10:52.398Z,0.00
2017-12-28T03:11:52.387Z,0.00
2017-12-28T03:12:52.378Z,0.00
2017-12-28T03:13:52.373Z,0.00
2017-12-28T03:14:52.363Z,0.00
2017-12-28T03:15:52.353Z,0.00
2017-12-28T03:16:52.345Z,0.00
2017-12-28T03:17:52.337Z,0.00
2017-12-28T03:18:52.324Z,0.00
2017-12-28T03:19:52.315Z,0.00
2017-12-28T03:20:52.306Z,0.00
2017-12-28T03:21:52.293Z,0.00
2017-12-28T03:22:52.283Z,0.00
2017-12-28T03:23:52.273Z,0.00
2017-12-28T03:24:52.264Z,0.00
2017-12-28T03:25:52.253Z,0.00
2017-12-28T03:26:52.243Z,0.00
2017-12-28T03:27:52.239Z,0.00
2017-12-28T03:28:52.225Z,0.00
2017-12-28T03:29:52.218Z,0.00
2017-12-28T03:30:52.208Z,0.00
2017-12-28T03:31:52.198Z,0.00
2017-12-28T03:32:52.188Z,0.00
2017-12-28T03:33:52.178Z,0.00
2017-12-28T03:34:52.168Z,0.00
2017-12-28T03:35:52.158Z,0.00
2017-12-28T03:36:52.148Z,0.00
2017-12-28T03:37:52.134Z,0.00
2017-12-28T03:38:52.124Z,0.00
2017-12-28T03:39:52.114Z,0.00
2017-12-28T03:40:52.105Z,0.00
2017-12-28T03:41:52.095Z,0.00
2017-12-28T03:42:52.084Z,0.00
2017-12-28T03:43:52.076Z,0.00
2017-12-28T03:44:52.065Z,0.00
2017-12-28T03:45:52.059Z,0.00
2017-12-28T03:46:52.049Z,0.00
2017-12-28T03:47:52.038Z,0.00
2017-12-28T03:48:52.032Z,0.00
2017-12-28T03:49:52.019Z,0.00
2017-12-28T03:50:52.008Z,0.00
2017-12-28T03:51:52.000Z,0.00
2017-12-28T03:52:51.988Z,0.00
2017-12-28T03:53:51.974Z,0.00
2017-12-28T03:54:51.963Z,0.00
2017-12-28T03:55:51.954Z,0.00
2017-12-28T03:56:51.944Z,0.00
2017-12-28T03:57:51.934Z,0.00
2017-12-28T03:58:51.923Z,0.00
2017-12-28T03:59:51.913Z,0.00
2017-12-28T04:00:51.904Z,0.00
2017-12-28T04:01:51.898Z,0.00
2017-12-28T04:02:51.887Z,0.00
2017-12-28T04:03:51.877Z,0.00
2017-12-28T04:04:51.867Z,0.00
2017-12-28T04:05:51.857Z,0.00
2017-12-28T04:06:51.847Z,0.00
2017-12-28T04:07:51.837Z,0.00
2017-12-28T04:08:51.827Z,0.00
2017-12-28T04:09:51.814Z,0.00
2017-12-28T04:10:51.806Z,0.00
2017-12-28T04:11:51.793Z,0.00
2017-12-28T04:12:51.784Z,0.00
2017-12-28T04:13:51.775Z,0.00
2017-12-28T04:14:51.763Z,0.00
2017-12-28T04:15:51.754Z,0.00
2017-12-28T04:16:51.746Z,0.00
2017-12-28T04:17:51.739Z,0.00
2017-12-28T04:18:51.729Z,0.00
2017-12-28T04:19:51.720Z,0.00
2017-12-28T04:20:51.710Z,0.00
2017-12-28T04:21:51.700Z,0.00
2017-12-28T04:22:51.690Z,0.00
2017-12-28T04:23:51.680Z,0.00
2017-12-28T04:24:51.672Z,0.00
2017-12-28T04:25:51.701Z,0.00
2017-12-28T04:26:51.646Z,0.00
2017-12-28T04:27:51.638Z,0.00
2017-12-28T04:28:51.627Z,0.00
2017-12-28T04:29:51.617Z,0.00
2017-12-28T04:30:51.608Z,0.00
2017-12-28T04:31:51.598Z,0.00
2017-12-28T04:32:51.588Z,0.00
2017-12-28T04:33:51.591Z,0.00
2017-12-28T04:34:51.573Z,0.00
2017-12-28T04:35:51.562Z,0.00
2017-12-28T04:36:51.552Z,0.00
2017-12-28T04:37:51.546Z,0.00
2017-12-28T04:38:51.534Z,0.00
2017-12-28T04:39:51.524Z,0.00
2017-12-28T04:40:51.514Z,0.00
2017-12-28T04:41:51.502Z,0.00
2017-12-28T04:42:51.489Z,0.00
2017-12-28T04:43:51.482Z,0.00
2017-12-28T04:44:51.471Z,0.00
2017-12-28T04:45:51.461Z,0.00
2017-12-28T04:46:51.450Z,0.00
2017-12-28T04:47:51.440Z,0.00
2017-12-28T04:48:51.431Z,0.00
2017-12-28T04:49:51.426Z,0.00
2017-12-28T04:50:51.415Z,0.00
2017-12-28T04:51:51.406Z,0.00
2017-12-28T04:52:51.397Z,0.00
2017-12-28T04:53:51.387Z,0.00
2017-12-28T04:54:51.377Z,0.00
2017-12-28T04:55:51.374Z,0.00
2017-12-28T04:56:51.358Z,0.00
2017-12-28T04:57:51.344Z,0.00
2017-12-28T04:58:51.334Z,0.00
2017-12-28T04:59:51.326Z,0.00
2017-12-28T05:00:51.314Z,0.00
2017-12-28T05:01:51.306Z,0.00
2017-12-28T05:02:51.296Z,0.00
2017-12-28T05:03:51.286Z,0.00
2017-12-28T05:04:51.277Z,0.00
2017-12-28T05:05:51.271Z,0.00
2017-12-28T05:06:51.261Z,0.00
2017-12-28T05:07:51.252Z,0.00
2017-12-28T05:08:51.243Z,0.00
2017-12-28T05:09:51.234Z,0.00
2017-12-28T05:10:51.223Z,0.00
2017-12-28T05:11:51.214Z,0.00
2017-12-28T05:12:51.205Z,0.00
2017-12-28T05:13:51.192Z,0.00
2017-12-28T05:14:51.183Z,0.00
2017-12-28T05:15:51.172Z,0.00
2017-12-28T05:16:51.162Z,0.00
2017-12-28T05:17:51.157Z,0.00
2017-12-28T05:18:51.147Z,0.00
2017-12-28T05:19:51.137Z,0.00
2017-12-28T05:20:51.129Z,0.00
2017-12-28T05:21:51.114Z,0.00
2017-12-28T05:22:51.104Z,0.00
2017-12-28T05:23:51.094Z,0.00
2017-12-28T05:24:51.085Z,0.00
2017-12-28T05:25:51.077Z,0.00
2017-12-28T05:26:51.067Z,0.00
2017-12-28T05:27:51.057Z,0.00
2017-12-28T05:28:51.049Z,0.00
2017-12-28T05:29:51.043Z,0.00
2017-12-28T05:30:51.032Z,0.00
2017-12-28T05:31:51.023Z,0.00
2017-12-28T05:32:51.014Z,0.00
2017-12-28T05:33:51.004Z,0.00
2017-12-28T05:34:50.993Z,0.00
2017-12-28T05:35:50.989Z,0.00
2017-12-28T05:36:50.978Z,0.00
2017-12-28T05:37:50.962Z,0.00
2017-12-28T05:38:50.952Z,0.00
2017-12-28T05:39:50.942Z,0.00
2017-12-28T05:40:50.932Z,0.00
2017-12-28T05:41:50.923Z,0.00
2017-12-28T05:42:50.913Z,0.00
2017-12-28T05:43:50.903Z,0.00
2017-12-28T05:44:50.894Z,0.00
2017-12-28T05:45:50.889Z,0.00
2017-12-28T05:46:50.878Z,0.00
2017-12-28T05:47:50.869Z,0.00
2017-12-28T05:48:50.859Z,0.00
2017-12-28T05:49:50.851Z,0.00
2017-12-28T05:50:50.840Z,0.00
2017-12-28T05:51:50.832Z,0.00
2017-12-28T05:52:50.821Z,0.00
2017-12-28T05:53:50.809Z,0.00
2017-12-28T05:54:50.798Z,0.00
2017-12-28T05:55:50.788Z,0.00
2017-12-28T05:56:50.778Z,0.00
2017-12-28T05:57:50.769Z,0.00
2017-12-28T05:58:50.759Z,0.00
2017-12-28T05:59:50.751Z,0.00
2017-12-28T06:00:50.740Z,0.00
2017-12-28T06:01:50.735Z,0.00
2017-12-28T06:02:50.725Z,0.00
2017-12-28T06:03:50.715Z,0.00
2017-12-28T06:04:50.706Z,0.00
2017-12-28T06:05:50.697Z,0.00
2017-12-28T06:06:50.688Z,0.00
2017-12-28T06:07:50.678Z,0.00
2017-12-28T06:08:50.668Z,0.00
2017-12-28T06:09:50.655Z,0.00
2017-12-28T06:10:50.644Z,0.00
2017-12-28T06:11:50.636Z,0.00
2017-12-28T06:12:50.627Z,0.00
2017-12-28T06:13:50.616Z,0.00
2017-12-28T06:14:50.612Z,0.00
2017-12-28T06:15:50.597Z,0.00
2017-12-28T06:16:50.590Z,0.00
2017-12-28T06:17:50.583Z,0.00
2017-12-28T06:18:50.572Z,0.00
2017-12-28T06:19:50.563Z,0.00
2017-12-28T06:20:50.555Z,0.00
2017-12-28T06:21:50.541Z,0.00
2017-12-28T06:22:50.530Z,0.00
2017-12-28T06:23:50.523Z,0.00
2017-12-28T06:24:50.528Z,0.00
2017-12-28T06:25:50.507Z,0.00
2017-12-28T06:26:50.496Z,0.00
2017-12-28T06:27:50.489Z,0.00
2017-12-28T06:28:50.479Z,0.00
2017-12-28T06:29:50.470Z,0.00
2017-12-28T06:30:50.459Z,0.00
2017-12-28T06:31:50.451Z,0.00
2017-12-28T06:32:50.441Z,0.00
2017-12-28T06:33:50.429Z,0.00
2017-12-28T06:34:50.418Z,0.00
2017-12-28T06:35:50.409Z,0.00
2017-12-28T06:36:50.401Z,0.00
2017-12-28T06:37:50.394Z,0.00
2017-12-28T06:38:50.381Z,0.00
2017-12-28T06:39:50.372Z,0.00
2017-12-28T06:40:50.363Z,0.00
2017-12-28T06:41:50.358Z,0.00
2017-12-28T06:42:50.348Z,0.00
2017-12-28T06:43:50.339Z,0.00
2017-12-28T06:44:50.330Z,0.00
2017-12-28T06:45:50.326Z,0.00
2017-12-28T06:46:50.310Z,0.00
2017-12-28T06:47:50.303Z,0.00
2017-12-28T06:48:50.292Z,0.00
2017-12-28T06:49:50.279Z,0.00
2017-12-28T06:50:50.269Z,0.00
2017-12-28T06:51:50.264Z,0.00
2017-12-28T06:52:50.250Z,0.00
2017-12-28T06:53:50.242Z,0.00
2017-12-28T06:54:50.232Z,0.00
2017-12-28T06:55:50.222Z,0.00
2017-12-28T06:56:50.214Z,0.00
2017-12-28T06:57:50.210Z,0.00
2017-12-28T06:58:50.198Z,0.00
2017-12-28T06:59:50.190Z,0.00
2017-12-28T07:00:50.180Z,0.00
2017-12-28T07:01:50.172Z,0.00
2017-12-28T07:02:50.161Z,0.00
2017-12-28T07:03:50.153Z,0.00
2017-12-28T07:04:50.144Z,4.00
2017-12-28T07:05:50.129Z,4.00
2017-12-28T07:06:50.120Z,4.00
2017-12-28T07:07:50.112Z,4.00
2017-12-28T07:08:50.101Z,4.00
2017-12-28T07:09:50.100Z,4.00
2017-12-28T07:10:50.082Z,4.00
2017-12-28T07:11:50.072Z,4.00
2017-12-28T07:12:50.063Z,4.00
2017-12-28T07:13:50.058Z,8.00
2017-12-28T07:14:50.048Z,8.00
2017-12-28T07:15:50.039Z,8.00
2017-12-28T07:16:50.030Z,12.00
2017-12-28T07:17:50.021Z,12.00
2017-12-28T07:18:50.010Z,12.00
2017-12-28T07:19:50.001Z,16.00
2017-12-28T07:20:49.992Z,12.00
2017-12-28T07:21:49.978Z,20.00
2017-12-28T07:22:49.967Z,20.00
2017-12-28T07:23:49.958Z,28.00
2017-12-28T07:24:49.949Z,28.00
2017-12-28T07:25:49.945Z,28.00
2017-12-28T07:26:49.934Z,40.00
2017-12-28T07:27:49.924Z,40.00
2017-12-28T07:28:49.915Z,40.00
2017-12-28T07:29:49.902Z,52.00
2017-12-28T07:30:49.891Z,56.00
2017-12-28T07:31:49.882Z,52.00
2017-12-28T07:32:49.872Z,56.00
2017-12-28T07:33:49.864Z,72.00
2017-12-28T07:34:49.858Z,64.00
2017-12-28T07:35:49.844Z,72.00
2017-12-28T07:36:49.834Z,92.00
2017-12-28T07:37:49.829Z,96.00
2017-12-28T07:38:49.820Z,104.00
2017-12-28T07:39:49.810Z,104.00
2017-12-28T07:40:49.802Z,128.00
2017-12-28T07:41:49.792Z,156.00
2017-12-28T07:42:49.782Z,184.00
2017-12-28T07:43:49.775Z,168.00
2017-12-28T07:44:49.763Z,176.00
2017-12-28T07:45:49.750Z,208.00
2017-12-28T07:46:49.740Z,252.00
2017-12-28T07:47:49.732Z,264.00
2017-12-28T07:48:49.721Z,260.00
2017-12-28T07:49:49.712Z,276.00
2017-12-28T07:50:49.702Z,280.00
2017-12-28T07:51:49.694Z,324.00
2017-12-28T07:52:49.684Z,384.00
2017-12-28T07:53:49.679Z,400.00
2017-12-28T07:54:49.668Z,468.00
2017-12-28T07:55:49.660Z,480.00
2017-12-28T07:56:49.650Z,508.00
2017-12-28T07:57:49.641Z,588.00
2017-12-28T07:58:49.631Z,584.00
2017-12-28T07:59:49.628Z,644.00
2017-12-28T08:00:49.612Z,744.00
2017-12-28T08:01:49.599Z,748.00
2017-12-28T08:02:49.588Z,784.00
2017-12-28T08:03:49.579Z,868.00
2017-12-28T08:04:49.570Z,880.00
2017-12-28T08:05:49.560Z,940.00
2017-12-28T08:06:49.551Z,904.00
2017-12-28T08:07:49.542Z,960.00
2017-12-28T08:08:49.531Z,1156.00
2017-12-28T08:09:49.531Z,1336.00
2017-12-28T08:10:49.516Z,1448.00
2017-12-28T08:11:49.507Z,1432.00
2017-12-28T08:12:49.497Z,1524.00
2017-12-28T08:13:49.489Z,1684.00
2017-12-28T08:14:49.477Z,1748.00
2017-12-28T08:15:49.468Z,1772.00
2017-12-28T08:16:49.458Z,2144.00
2017-12-28T08:17:49.449Z,2404.00
2017-12-28T08:18:49.435Z,2268.00
2017-12-28T08:19:49.426Z,1924.00
2017-12-28T08:20:49.418Z,1660.00
2017-12-28T08:21:49.408Z,1532.00
2017-12-28T08:22:49.403Z,1468.00
2017-12-28T08:23:49.392Z,1500.00
2017-12-28T08:24:49.379Z,1444.00
2017-12-28T08:25:49.377Z,1368.00
2017-12-28T08:26:49.365Z,1328.00
2017-12-28T08:27:49.356Z,1216.00
2017-12-28T08:28:49.347Z,1104.00
2017-12-28T08:29:49.339Z,1036.00
2017-12-28T08:30:49.329Z,956.00
2017-12-28T08:31:49.320Z,884.00
2017-12-28T08:32:49.311Z,872.00
2017-12-28T08:33:49.299Z,928.00
2017-12-28T08:34:49.288Z,1032.00
2017-12-28T08:35:49.280Z,1076.00
2017-12-28T08:36:49.271Z,1052.00
2017-12-28T08:37:49.263Z,1088.00
2017-12-28T08:38:49.253Z,1176.00
2017-12-28T08:39:49.246Z,1356.00
2017-12-28T08:40:49.236Z,1524.00
2017-12-28T08:41:49.231Z,1920.00
2017-12-28T08:42:49.222Z,1656.00
2017-12-28T08:43:49.213Z,1832.00
2017-12-28T08:44:49.204Z,1772.00
2017-12-28T08:45:49.196Z,1596.00
2017-12-28T08:46:49.188Z,1524.00
2017-12-28T08:47:49.183Z,1296.00
2017-12-28T08:48:49.170Z,1284.00
2017-12-28T08:49:49.156Z,1996.00
2017-12-28T08:50:49.148Z,1524.00
2017-12-28T08:51:49.139Z,1708.00
2017-12-28T08:52:49.131Z,2112.00
2017-12-28T08:53:49.122Z,2016.00
2017-12-28T08:54:49.112Z,2348.00
2017-12-28T08:55:49.105Z,2412.00
2017-12-28T08:56:49.097Z,2120.00
2017-12-28T08:57:49.092Z,2644.00
2017-12-28T08:58:49.082Z,2084.00
2017-12-28T08:59:49.073Z,2152.00
2017-12-28T09:00:49.067Z,2548.00
2017-12-28T09:01:49.056Z,3044.00
2017-12-28T09:02:49.047Z,2884.00
2017-12-28T09:03:49.039Z,4000.00
2017-12-28T09:04:49.030Z,3664.00
2017-12-28T09:05:49.024Z,3164.00
2017-12-28T09:06:49.008Z,3248.00
2017-12-28T09:07:49.000Z,3840.00
2017-12-28T09:08:48.992Z,4156.00
2017-12-28T09:09:48.984Z,3776.00
2017-12-28T09:10:48.974Z,3616.00
2017-12-28T09:11:48.966Z,4188.00
2017-12-28T09:12:48.959Z,4132.00
2017-12-28T09:13:48.953Z,3868.00
2017-12-28T09:14:48.945Z,3912.00
2017-12-28T09:15:48.941Z,4436.00
2017-12-28T09:16:48.929Z,4720.00
2017-12-28T09:17:48.921Z,4248.00
2017-12-28T09:18:48.913Z,5164.00
2017-12-28T09:19:48.904Z,4028.00
2017-12-28T09:20:48.896Z,4064.00
2017-12-28T09:21:48.884Z,5308.00
2017-12-28T09:22:48.876Z,4356.00
2017-12-28T09:23:48.869Z,4728.00
2017-12-28T09:24:48.861Z,4720.00
2017-12-28T09:25:48.853Z,4988.00
2017-12-28T09:26:48.845Z,2712.00
2017-12-28T09:27:48.837Z,4224.00
2017-12-28T09:28:48.831Z,3528.00
2017-12-28T09:29:48.828Z,3500.00
2017-12-28T09:30:48.820Z,2800.00
2017-12-28T09:31:48.811Z,3856.00
2017-12-28T09:32:48.806Z,4120.00
2017-12-28T09:33:48.795Z,3568.00
2017-12-28T09:34:48.783Z,4712.00
2017-12-28T09:35:48.777Z,3820.00
2017-12-28T09:36:48.772Z,3532.00
2017-12-28T09:37:48.766Z,4032.00
2017-12-28T09:38:48.757Z,4900.00
2017-12-28T09:39:48.750Z,3872.00
2017-12-28T09:40:48.742Z,5348.00
2017-12-28T09:41:48.735Z,5100.00
2017-12-28T09:42:48.727Z,4740.00
2017-12-28T09:43:48.720Z,5912.00
2017-12-28T09:44:48.716Z,4396.00
2017-12-28T09:45:48.702Z,4796.00
2017-12-28T09:46:48.693Z,8380.00
2017-12-28T09:47:48.687Z,5840.00
2017-12-28T09:48:48.679Z,9844.00
2017-12-28T09:49:48.671Z,4448.00
2017-12-28T09:50:48.665Z,4464.00
2017-12-28T09:51:48.657Z,7276.00
2017-12-28T09:52:48.651Z,6008.00
2017-12-28T09:53:48.649Z,11456.00
2017-12-28T09:54:48.642Z,5604.00
2017-12-28T09:55:48.636Z,5524.00
2017-12-28T09:56:48.630Z,4236.00
2017-12-28T09:57:48.624Z,4016.00
2017-12-28T09:58:48.619Z,5244.00
2017-12-28T09:59:48.613Z,5316.00
2017-12-28T10:00:48.607Z,10376.00
2017-12-28T10:01:48.598Z,10136.00
2017-12-28T10:02:48.591Z,7396.00
2017-12-28T10:03:48.588Z,11976.00
2017-12-28T10:04:48.582Z,5848.00
2017-12-28T10:05:48.582Z,5816.00
2017-12-28T10:06:48.572Z,5076.00
2017-12-28T10:07:48.568Z,4548.00
2017-12-28T10:08:48.564Z,7880.00
2017-12-28T10:09:48.568Z,6436.00
2017-12-28T10:10:48.609Z,12356.00
2017-12-28T10:11:48.555Z,5140.00
2017-12-28T10:12:48.550Z,4696.00
2017-12-28T10:13:48.547Z,4224.00
2017-12-28T10:14:48.544Z,4272.00
2017-12-28T10:15:48.538Z,5112.00
2017-12-28T10:16:48.542Z,9320.00
2017-12-28T10:17:48.527Z,12164.00
2017-12-28T10:18:48.522Z,5916.00
2017-12-28T10:19:48.519Z,6112.00
2017-12-28T10:20:48.516Z,6080.00
2017-12-28T10:21:48.515Z,4912.00
2017-12-28T10:22:48.508Z,10784.00
2017-12-28T10:23:48.504Z,14464.00
2017-12-28T10:24:48.500Z,6068.00
2017-12-28T10:25:48.501Z,5440.00
2017-12-28T10:26:48.496Z,4404.00
2017-12-28T10:27:48.493Z,4104.00
2017-12-28T10:28:48.489Z,4952.00
2017-12-28T10:29:48.485Z,5404.00
2017-12-28T10:30:48.480Z,4160.00
2017-12-28T10:31:48.478Z,4928.00
2017-12-28T10:32:48.473Z,3800.00
2017-12-28T10:33:48.465Z,4664.00
2017-12-28T10:34:48.460Z,4872.00
2017-12-28T10:35:48.457Z,5644.00
2017-12-28T10:36:48.453Z,5144.00
2017-12-28T10:37:48.453Z,3580.00
2017-12-28T10:38:48.449Z,5864.00
2017-12-28T10:39:48.444Z,4140.00
2017-12-28T10:40:48.439Z,3448.00
2017-12-28T10:41:48.430Z,6088.00
2017-12-28T10:42:48.425Z,5156.00
2017-12-28T10:43:48.422Z,12436.00
2017-12-28T10:44:48.417Z,5840.00
2017-12-28T10:45:48.411Z,5848.00
2017-12-28T10:46:48.405Z,8508.00
2017-12-28T10:47:48.401Z,5612.00
2017-12-28T10:48:48.397Z,7172.00
2017-12-28T10:49:48.396Z,7156.00
2017-12-28T10:50:48.391Z,7872.00
2017-12-28T10:51:48.419Z,12844.00
2017-12-28T10:52:48.381Z,12564.00
2017-12-28T10:53:48.377Z,4588.00
2017-12-28T10:54:48.373Z,14144.00
2017-12-28T10:55:48.368Z,12504.00
2017-12-28T10:56:48.364Z,13100.00
2017-12-28T10:57:48.357Z,14656.00
2017-12-28T10:58:48.352Z,13804.00
2017-12-28T10:59:48.349Z,13128.00
2017-12-28T11:00:48.348Z,11580.00
2017-12-28T11:01:48.344Z,11560.00
2017-12-28T11:02:48.340Z,11140.00
2017-12-28T11:03:48.339Z,11996.00
2017-12-28T11:04:48.337Z,12160.00
2017-12-28T11:05:48.340Z,7912.00
2017-12-28T11:06:48.337Z,12248.00
2017-12-28T11:07:48.335Z,10564.00
2017-12-28T11:08:48.358Z,7592.00
2017-12-28T11:09:48.333Z,8864.00
2017-12-28T11:10:48.350Z,9924.00
2017-12-28T11:11:48.341Z,9768.00
2017-12-28T11:12:48.331Z,8904.00
2017-12-28T11:13:48.326Z,14720.00
2017-12-28T11:14:48.325Z,12888.00
2017-12-28T11:15:48.326Z,12008.00
2017-12-28T11:16:48.325Z,6380.00
2017-12-28T11:17:48.324Z,6064.00
2017-12-28T11:18:48.324Z,4656.00
2017-12-28T11:19:48.323Z,11980.00
2017-12-28T11:20:48.325Z,5060.00
2017-12-28T11:21:48.327Z,7620.00
2017-12-28T11:22:48.328Z,5380.00
2017-12-28T11:23:48.327Z,6664.00
2017-12-28T11:24:48.329Z,9696.00
2017-12-28T11:25:48.326Z,8556.00
2017-12-28T11:26:48.327Z,9048.00
2017-12-28T11:27:48.325Z,8524.00
2017-12-28T11:28:48.329Z,9540.00
2017-12-28T11:29:48.320Z,9188.00
2017-12-28T11:30:48.319Z,5224.00
2017-12-28T11:31:48.319Z,8472.00
2017-12-28T11:32:48.319Z,8680.00
2017-12-28T11:33:48.319Z,8792.00
2017-12-28T11:34:48.356Z,9664.00
2017-12-28T11:35:48.316Z,6148.00
2017-12-28T11:36:48.316Z,4152.00
2017-12-28T11:37:48.319Z,3932.00
2017-12-28T11:38:48.317Z,4236.00
2017-12-28T11:39:48.316Z,4988.00
2017-12-28T11:40:48.316Z,3612.00
2017-12-28T11:41:48.318Z,3964.00
2017-12-28T11:42:48.311Z,5552.00
2017-12-28T11:43:48.304Z,5388.00
2017-12-28T11:44:48.319Z,4940.00
2017-12-28T11:45:48.305Z,4760.00
2017-12-28T11:46:48.304Z,4832.00
2017-12-28T11:47:48.306Z,4464.00
2017-12-28T11:48:48.296Z,4680.00
2017-12-28T11:49:48.293Z,4592.00
2017-12-28T11:50:48.290Z,4328.00
2017-12-28T11:51:48.287Z,4228.00
2017-12-28T11:52:48.313Z,4080.00
2017-12-28T11:53:48.275Z,3116.00
2017-12-28T11:54:48.271Z,4108.00
2017-12-28T11:55:48.267Z,4144.00
2017-12-28T11:56:48.263Z,4032.00
2017-12-28T11:57:48.265Z,2544.00
2017-12-28T11:58:48.255Z,3996.00
2017-12-28T11:59:48.252Z,2504.00
2017-12-28T12:00:48.247Z,3808.00
2017-12-28T12:01:48.246Z,3780.00
2017-12-28T12:02:48.242Z,2672.00
2017-12-28T12:03:48.237Z,2636.00
2017-12-28T12:04:48.232Z,3684.00
2017-12-28T12:05:48.246Z,3784.00
2017-12-28T12:06:48.222Z,2752.00
2017-12-28T12:07:48.216Z,2816.00
2017-12-28T12:08:48.211Z,2580.00
2017-12-28T12:09:48.202Z,2540.00
2017-12-28T12:10:48.194Z,2596.00
2017-12-28T12:11:48.189Z,3716.00
2017-12-28T12:12:48.185Z,2996.00
2017-12-28T12:13:48.178Z,3236.00
2017-12-28T12:14:48.173Z,3236.00
2017-12-28T12:15:48.170Z,3612.00
2017-12-28T12:16:48.160Z,3432.00
2017-12-28T12:17:48.158Z,3444.00
2017-12-28T12:18:48.151Z,2772.00
2017-12-28T12:19:48.152Z,2448.00
2017-12-28T12:20:48.141Z,3532.00
2017-12-28T12:21:48.134Z,3448.00
2017-12-28T12:22:48.127Z,3284.00
2017-12-28T12:23:48.121Z,3296.00
2017-12-28T12:24:48.115Z,3208.00
2017-12-28T12:25:48.104Z,3488.00
2017-12-28T12:26:48.098Z,2804.00
2017-12-28T12:27:48.092Z,2412.00
2017-12-28T12:28:48.085Z,3220.00
2017-12-28T12:29:48.078Z,3176.00
2017-12-28T12:30:48.071Z,2840.00
2017-12-28T12:31:48.064Z,3220.00
2017-12-28T12:32:48.059Z,3688.00
2017-12-28T12:33:48.056Z,3984.00
2017-12-28T12:34:48.048Z,3260.00
2017-12-28T12:35:48.042Z,2516.00
2017-12-28T12:36:48.035Z,3044.00
2017-12-28T12:37:48.031Z,2992.00
2017-12-28T12:38:48.020Z,2948.00
2017-12-28T12:39:48.014Z,2576.00
2017-12-28T12:40:48.008Z,3476.00
2017-12-28T12:41:47.996Z,3680.00
2017-12-28T12:42:47.988Z,2292.00
2017-12-28T12:43:47.981Z,2116.00
2017-12-28T12:44:47.975Z,2040.00
2017-12-28T12:45:47.972Z,3616.00
2017-12-28T12:46:47.964Z,2968.00